RYR88TM LIRF-LEBL
Flight info
| Callsign | RYR88TM |
|---|---|
| Flight time | 1h 34m |
| Altitude | 37000 |
| Route | ESINO DCT ABIDU DCT EPIKU DCT GINOX DCT KIFMI DCT ELVOP DCT MUREN DCT CHELY DCT VERSO |
| Aircraft | B738/M-SDE2E3FGHIRWXY/LB1 |
Departure
| Time | 2026-05-07 14:50 |
|---|---|
| Airport | Rome–Fiumicino Leonardo da Vinci International Airport (LIRF) |
Arrival
| Time | 2026-05-07 16:25 |
|---|---|
| Airport | Josep Tarradellas Barcelona-El Prat Airport (LEBL) |
| Time | Latitude | Longitude | Altitude | Speed | Heading |
|---|---|---|---|---|---|
| 2026-05-07 14:23 | 41.79762 | 12.24819 | 11 ft | 0 kts | 249° |
| 2026-05-07 14:38 | 41.79763 | 12.24822 | 11 ft | 2 kts | 249° |
| 2026-05-07 14:38 | 41.79768 | 12.24841 | 11 ft | 2 kts | 249° |
| 2026-05-07 14:38 | 41.79773 | 12.24860 | 11 ft | 2 kts | 260° |
| 2026-05-07 14:39 | 41.79773 | 12.24880 | 11 ft | 2 kts | 278° |
| 2026-05-07 14:39 | 41.79769 | 12.24899 | 12 ft | 2 kts | 295° |
| 2026-05-07 14:39 | 41.79761 | 12.24916 | 12 ft | 2 kts | 312° |
| 2026-05-07 14:39 | 41.79750 | 12.24929 | 13 ft | 2 kts | 329° |
| 2026-05-07 14:40 | 41.79741 | 12.24935 | 13 ft | 1 kts | 340° |
| 2026-05-07 14:40 | 41.79736 | 12.24937 | 13 ft | 0 kts | 341° |
| 2026-05-07 14:42 | 41.79738 | 12.24936 | 13 ft | 2 kts | 341° |
| 2026-05-07 14:43 | 41.79770 | 12.24922 | 12 ft | 4 kts | 341° |
| 2026-05-07 14:43 | 41.79789 | 12.24912 | 12 ft | 3 kts | 338° |
| 2026-05-07 14:43 | 41.79831 | 12.24891 | 10 ft | 8 kts | 339° |
| 2026-05-07 14:43 | 41.79877 | 12.24867 | 10 ft | 5 kts | 339° |
| 2026-05-07 14:44 | 41.79939 | 12.24836 | 9 ft | 12 kts | 340° |
| 2026-05-07 14:44 | 41.80025 | 12.24793 | 9 ft | 14 kts | 339° |
| 2026-05-07 14:44 | 41.80121 | 12.24769 | 9 ft | 14 kts | 2° |
| 2026-05-07 14:44 | 41.80197 | 12.24840 | 9 ft | 14 kts | 76° |
| 2026-05-07 14:45 | 41.80206 | 12.24973 | 9 ft | 14 kts | 89° |
| 2026-05-07 14:45 | 41.80218 | 12.25098 | 9 ft | 13 kts | 73° |
| 2026-05-07 14:45 | 41.80245 | 12.25201 | 11 ft | 10 kts | 70° |
| 2026-05-07 14:45 | 41.80269 | 12.25292 | 13 ft | 11 kts | 70° |
| 2026-05-07 14:46 | 41.80302 | 12.25417 | 12 ft | 16 kts | 69° |
| 2026-05-07 14:46 | 41.80345 | 12.25572 | 12 ft | 19 kts | 69° |
| 2026-05-07 14:46 | 41.80398 | 12.25753 | 13 ft | 22 kts | 68° |
| 2026-05-07 14:46 | 41.80447 | 12.25932 | 14 ft | 18 kts | 69° |
| 2026-05-07 14:47 | 41.80484 | 12.26063 | 16 ft | 12 kts | 70° |
| 2026-05-07 14:47 | 41.80512 | 12.26170 | 16 ft | 11 kts | 71° |
| 2026-05-07 14:47 | 41.80540 | 12.26278 | 14 ft | 12 kts | 70° |
| 2026-05-07 14:47 | 41.80573 | 12.26397 | 12 ft | 15 kts | 69° |
| 2026-05-07 14:48 | 41.80615 | 12.26546 | 12 ft | 19 kts | 69° |
| 2026-05-07 14:48 | 41.80664 | 12.26721 | 9 ft | 19 kts | 69° |
| 2026-05-07 14:48 | 41.80706 | 12.26865 | 9 ft | 14 kts | 68° |
| 2026-05-07 14:48 | 41.80736 | 12.26972 | 9 ft | 10 kts | 70° |
| 2026-05-07 14:49 | 41.80782 | 12.27044 | 9 ft | 11 kts | 9° |
| 2026-05-07 14:49 | 41.80869 | 12.27008 | 10 ft | 17 kts | 336° |
| 2026-05-07 14:49 | 41.80954 | 12.26924 | 10 ft | 12 kts | 267° |
| 2026-05-07 14:49 | 41.80897 | 12.26713 | 10 ft | 51 kts | 250° |
| 2026-05-07 14:50 | 41.80694 | 12.25976 | 16 ft | 114 kts | 250° |
| 2026-05-07 14:50 | 41.80356 | 12.24744 | 73 ft | 160 kts | 252° |
| 2026-05-07 14:50 | 41.79966 | 12.23325 | 644 ft | 166 kts | 252° |
| 2026-05-07 14:50 | 41.79587 | 12.21911 | 1394 ft | 162 kts | 254° |
| 2026-05-07 14:51 | 41.79394 | 12.20383 | 1747 ft | 180 kts | 269° |
| 2026-05-07 14:51 | 41.79337 | 12.18576 | 2036 ft | 206 kts | 266° |
| 2026-05-07 14:51 | 41.79195 | 12.16539 | 2414 ft | 231 kts | 263° |
| 2026-05-07 14:51 | 41.78835 | 12.14448 | 3213 ft | 234 kts | 248° |
| 2026-05-07 14:52 | 41.77952 | 12.12619 | 3854 ft | 245 kts | 223° |
| 2026-05-07 14:52 | 41.76554 | 12.11178 | 4424 ft | 260 kts | 214° |
| 2026-05-07 14:52 | 41.75068 | 12.09758 | 5172 ft | 267 kts | 217° |
| 2026-05-07 14:52 | 41.73645 | 12.08186 | 5975 ft | 272 kts | 221° |
| 2026-05-07 14:53 | 41.72245 | 12.06487 | 6840 ft | 274 kts | 221° |
| 2026-05-07 14:53 | 41.70680 | 12.05025 | 7666 ft | 278 kts | 205° |
| 2026-05-07 14:53 | 41.68832 | 12.04294 | 8024 ft | 289 kts | 186° |
| 2026-05-07 14:53 | 41.66824 | 12.04202 | 9016 ft | 286 kts | 179° |
| 2026-05-07 14:54 | 41.64870 | 12.04270 | 9940 ft | 286 kts | 180° |
| 2026-05-07 14:54 | 41.62837 | 12.04100 | 10478 ft | 301 kts | 192° |
| 2026-05-07 14:54 | 41.60818 | 12.03091 | 10751 ft | 321 kts | 212° |
| 2026-05-07 14:54 | 41.58992 | 12.01355 | 11598 ft | 325 kts | 219° |
| 2026-05-07 14:55 | 41.57240 | 11.99436 | 12407 ft | 330 kts | 220° |
| 2026-05-07 14:55 | 41.55470 | 11.97488 | 13366 ft | 331 kts | 220° |
| 2026-05-07 14:55 | 41.53699 | 11.95569 | 14267 ft | 334 kts | 220° |
| 2026-05-07 14:55 | 41.51893 | 11.93635 | 15165 ft | 337 kts | 220° |
| 2026-05-07 14:56 | 41.50060 | 11.91687 | 16052 ft | 339 kts | 220° |
| 2026-05-07 14:56 | 41.48224 | 11.89743 | 16906 ft | 342 kts | 220° |
| 2026-05-07 14:56 | 41.46365 | 11.87780 | 17744 ft | 344 kts | 220° |
| 2026-05-07 14:56 | 41.44480 | 11.85792 | 18558 ft | 347 kts | 220° |
| 2026-05-07 14:57 | 41.42610 | 11.83822 | 19338 ft | 349 kts | 220° |
| 2026-05-07 14:57 | 41.40756 | 11.81749 | 20091 ft | 352 kts | 225° |
| 2026-05-07 14:57 | 41.39091 | 11.79336 | 20838 ft | 353 kts | 233° |
| 2026-05-07 14:57 | 41.37810 | 11.76590 | 21535 ft | 356 kts | 244° |
| 2026-05-07 14:58 | 41.36831 | 11.73540 | 22267 ft | 359 kts | 248° |
| 2026-05-07 14:58 | 41.35969 | 11.70425 | 22929 ft | 362 kts | 249° |
| 2026-05-07 14:58 | 41.35130 | 11.67290 | 23590 ft | 365 kts | 249° |
| 2026-05-07 14:58 | 41.34280 | 11.64114 | 24234 ft | 367 kts | 249° |
| 2026-05-07 14:59 | 41.33411 | 11.60885 | 24931 ft | 368 kts | 249° |
| 2026-05-07 14:59 | 41.32554 | 11.57714 | 25592 ft | 369 kts | 249° |
| 2026-05-07 14:59 | 41.31675 | 11.54474 | 26259 ft | 370 kts | 250° |
| 2026-05-07 14:59 | 41.30805 | 11.51276 | 26892 ft | 371 kts | 250° |
| 2026-05-07 15:00 | 41.29939 | 11.48100 | 27516 ft | 371 kts | 250° |
| 2026-05-07 15:00 | 41.29057 | 11.44870 | 28139 ft | 371 kts | 250° |
| 2026-05-07 15:00 | 41.28175 | 11.41647 | 28717 ft | 372 kts | 250° |
| 2026-05-07 15:00 | 41.27286 | 11.38404 | 29243 ft | 374 kts | 250° |
| 2026-05-07 15:01 | 41.26404 | 11.35191 | 29772 ft | 374 kts | 250° |
| 2026-05-07 15:01 | 41.25507 | 11.31935 | 30328 ft | 375 kts | 249° |
| 2026-05-07 15:01 | 41.24612 | 11.28701 | 30876 ft | 375 kts | 250° |
| 2026-05-07 15:01 | 41.23712 | 11.25453 | 31474 ft | 373 kts | 249° |
| 2026-05-07 15:02 | 41.22831 | 11.22272 | 32048 ft | 371 kts | 250° |
| 2026-05-07 15:02 | 41.21939 | 11.19053 | 32626 ft | 368 kts | 250° |
| 2026-05-07 15:02 | 41.21056 | 11.15870 | 33174 ft | 366 kts | 250° |
| 2026-05-07 15:02 | 41.20188 | 11.12741 | 33681 ft | 364 kts | 250° |
| 2026-05-07 15:03 | 41.19315 | 11.09602 | 34208 ft | 361 kts | 250° |
| 2026-05-07 15:03 | 41.18452 | 11.06498 | 34712 ft | 359 kts | 250° |
| 2026-05-07 15:03 | 41.17593 | 11.03412 | 35197 ft | 356 kts | 250° |
| 2026-05-07 15:03 | 41.16742 | 11.00358 | 35683 ft | 352 kts | 250° |
| 2026-05-07 15:04 | 41.15899 | 10.97337 | 36163 ft | 348 kts | 250° |
| 2026-05-07 15:04 | 41.15063 | 10.94345 | 36538 ft | 347 kts | 250° |
| 2026-05-07 15:04 | 41.14218 | 10.91322 | 36891 ft | 345 kts | 250° |
| 2026-05-07 15:04 | 41.13387 | 10.88351 | 36986 ft | 347 kts | 250° |
| 2026-05-07 15:05 | 41.11724 | 10.82421 | 36989 ft | 342 kts | 250° |
| 2026-05-07 15:05 | 41.10073 | 10.76548 | 36993 ft | 339 kts | 250° |
| 2026-05-07 15:06 | 41.08420 | 10.70681 | 36993 ft | 341 kts | 250° |
| 2026-05-07 15:06 | 41.06760 | 10.64801 | 36993 ft | 341 kts | 250° |
| 2026-05-07 15:07 | 41.05108 | 10.58963 | 36994 ft | 339 kts | 250° |
| 2026-05-07 15:07 | 41.03449 | 10.53116 | 36993 ft | 339 kts | 250° |
| 2026-05-07 15:08 | 41.01789 | 10.47274 | 36993 ft | 339 kts | 250° |
| 2026-05-07 15:08 | 41.00137 | 10.41460 | 36993 ft | 338 kts | 250° |
| 2026-05-07 15:09 | 40.98890 | 10.35449 | 36993 ft | 338 kts | 259° |
| 2026-05-07 15:09 | 40.98425 | 10.29323 | 36992 ft | 340 kts | 263° |
| 2026-05-07 15:10 | 40.98136 | 10.23066 | 36993 ft | 340 kts | 263° |
| 2026-05-07 15:10 | 40.97848 | 10.16849 | 36993 ft | 340 kts | 263° |
| 2026-05-07 15:11 | 40.97546 | 10.10634 | 36993 ft | 340 kts | 263° |
| 2026-05-07 15:11 | 40.97236 | 10.04441 | 36990 ft | 339 kts | 263° |
| 2026-05-07 15:12 | 40.96922 | 9.98269 | 36983 ft | 339 kts | 262° |
| 2026-05-07 15:12 | 40.96600 | 9.92031 | 36977 ft | 341 kts | 262° |
| 2026-05-07 15:13 | 40.96275 | 9.85801 | 36969 ft | 341 kts | 262° |
| 2026-05-07 15:13 | 40.95947 | 9.79586 | 36966 ft | 340 kts | 262° |
| 2026-05-07 15:14 | 40.95618 | 9.73417 | 36966 ft | 340 kts | 262° |
| 2026-05-07 15:14 | 40.95282 | 9.67188 | 36967 ft | 348 kts | 261° |
| 2026-05-07 15:15 | 40.94933 | 9.60786 | 36965 ft | 347 kts | 261° |
| 2026-05-07 15:15 | 40.94591 | 9.54530 | 36966 ft | 345 kts | 261° |
| 2026-05-07 15:16 | 40.94238 | 9.48183 | 36966 ft | 347 kts | 261° |
| 2026-05-07 15:16 | 40.93881 | 9.41820 | 36966 ft | 348 kts | 261° |
| 2026-05-07 15:17 | 40.93521 | 9.35464 | 36966 ft | 348 kts | 261° |
| 2026-05-07 15:17 | 40.93150 | 9.29089 | 36965 ft | 349 kts | 260° |
| 2026-05-07 15:18 | 40.92778 | 9.22779 | 36965 ft | 348 kts | 260° |
| 2026-05-07 15:18 | 40.92403 | 9.16416 | 36966 ft | 349 kts | 260° |
| 2026-05-07 15:19 | 40.92025 | 9.10030 | 36966 ft | 350 kts | 260° |
| 2026-05-07 15:19 | 40.91645 | 9.03634 | 36965 ft | 350 kts | 260° |
| 2026-05-07 15:20 | 40.91263 | 8.97257 | 36966 ft | 350 kts | 260° |
| 2026-05-07 15:20 | 40.90873 | 8.90823 | 36966 ft | 351 kts | 260° |
| 2026-05-07 15:21 | 40.90481 | 8.84406 | 36965 ft | 351 kts | 261° |
| 2026-05-07 15:21 | 40.90084 | 8.77965 | 36966 ft | 352 kts | 261° |
| 2026-05-07 15:22 | 40.89688 | 8.71609 | 36966 ft | 353 kts | 260° |
| 2026-05-07 15:22 | 40.89283 | 8.65159 | 36966 ft | 353 kts | 260° |
| 2026-05-07 15:23 | 40.88874 | 8.58688 | 36965 ft | 353 kts | 260° |
| 2026-05-07 15:23 | 40.88461 | 8.52220 | 36965 ft | 353 kts | 260° |
| 2026-05-07 15:24 | 40.88046 | 8.45786 | 36965 ft | 353 kts | 260° |
| 2026-05-07 15:24 | 40.87627 | 8.39347 | 36966 ft | 353 kts | 260° |
| 2026-05-07 15:25 | 40.87203 | 8.32891 | 36966 ft | 353 kts | 259° |
| 2026-05-07 15:25 | 40.86765 | 8.26407 | 36966 ft | 353 kts | 260° |
| 2026-05-07 15:26 | 40.86329 | 8.19964 | 36965 ft | 353 kts | 260° |
| 2026-05-07 15:26 | 40.85903 | 8.13537 | 36965 ft | 353 kts | 260° |
| 2026-05-07 15:27 | 40.85886 | 8.07020 | 36958 ft | 359 kts | 266° |
| 2026-05-07 15:27 | 40.86189 | 8.00397 | 36950 ft | 361 kts | 267° |
| 2026-05-07 15:28 | 40.86623 | 7.93774 | 36945 ft | 369 kts | 269° |
| 2026-05-07 15:28 | 40.87111 | 7.87031 | 36938 ft | 368 kts | 269° |
| 2026-05-07 15:29 | 40.87586 | 7.80313 | 36939 ft | 366 kts | 269° |
| 2026-05-07 15:29 | 40.88049 | 7.73583 | 36939 ft | 368 kts | 269° |
| 2026-05-07 15:30 | 40.88504 | 7.66890 | 36938 ft | 368 kts | 269° |
| 2026-05-07 15:30 | 40.88958 | 7.60128 | 36938 ft | 368 kts | 269° |
| 2026-05-07 15:31 | 40.89402 | 7.53426 | 36939 ft | 369 kts | 269° |
| 2026-05-07 15:31 | 40.89846 | 7.46671 | 36939 ft | 370 kts | 269° |
| 2026-05-07 15:32 | 40.90286 | 7.39935 | 36938 ft | 370 kts | 269° |
| 2026-05-07 15:32 | 40.90726 | 7.33107 | 36939 ft | 371 kts | 268° |
| 2026-05-07 15:33 | 40.91151 | 7.26350 | 36938 ft | 370 kts | 268° |
| 2026-05-07 15:33 | 40.91577 | 7.19546 | 36939 ft | 372 kts | 268° |
| 2026-05-07 15:34 | 40.92001 | 7.12767 | 36945 ft | 372 kts | 268° |
| 2026-05-07 15:34 | 40.92425 | 7.05938 | 36953 ft | 373 kts | 268° |
| 2026-05-07 15:35 | 40.92845 | 6.99109 | 36960 ft | 373 kts | 268° |
| 2026-05-07 15:35 | 40.93260 | 6.92305 | 36965 ft | 374 kts | 268° |
| 2026-05-07 15:36 | 40.93674 | 6.85447 | 36966 ft | 374 kts | 268° |
| 2026-05-07 15:36 | 40.94083 | 6.78600 | 36965 ft | 375 kts | 269° |
| 2026-05-07 15:37 | 40.94490 | 6.71728 | 36965 ft | 376 kts | 268° |
| 2026-05-07 15:37 | 40.94897 | 6.64789 | 36966 ft | 377 kts | 268° |
| 2026-05-07 15:38 | 40.95296 | 6.57910 | 36965 ft | 377 kts | 268° |
| 2026-05-07 15:38 | 40.95692 | 6.51000 | 36965 ft | 376 kts | 268° |
| 2026-05-07 15:39 | 40.96084 | 6.44095 | 36966 ft | 378 kts | 268° |
| 2026-05-07 15:39 | 40.96473 | 6.37169 | 36965 ft | 379 kts | 268° |
| 2026-05-07 15:40 | 40.96852 | 6.30298 | 36965 ft | 379 kts | 268° |
| 2026-05-07 15:40 | 40.97228 | 6.23346 | 36966 ft | 379 kts | 268° |
| 2026-05-07 15:41 | 40.97602 | 6.16416 | 36966 ft | 378 kts | 268° |
| 2026-05-07 15:41 | 40.97971 | 6.09517 | 36966 ft | 378 kts | 268° |
| 2026-05-07 15:42 | 40.98341 | 6.02554 | 36966 ft | 379 kts | 268° |
| 2026-05-07 15:42 | 40.98704 | 5.95598 | 36967 ft | 383 kts | 268° |
| 2026-05-07 15:43 | 40.99068 | 5.88557 | 36965 ft | 385 kts | 268° |
| 2026-05-07 15:43 | 40.99432 | 5.81521 | 36965 ft | 383 kts | 268° |
| 2026-05-07 15:44 | 40.99789 | 5.74471 | 36966 ft | 384 kts | 268° |
| 2026-05-07 15:44 | 41.00142 | 5.67433 | 36938 ft | 384 kts | 268° |
| 2026-05-07 15:45 | 41.00491 | 5.60378 | 36939 ft | 384 kts | 268° |
| 2026-05-07 15:45 | 41.00833 | 5.53366 | 36939 ft | 384 kts | 268° |
| 2026-05-07 15:46 | 41.01342 | 5.42767 | 36939 ft | 385 kts | 268° |
| 2026-05-07 15:47 | 41.01690 | 5.35695 | 36938 ft | 385 kts | 268° |
| 2026-05-07 15:47 | 41.02059 | 5.28651 | 36939 ft | 386 kts | 268° |
| 2026-05-07 15:48 | 41.02426 | 5.21553 | 36938 ft | 385 kts | 268° |
| 2026-05-07 15:48 | 41.02788 | 5.14504 | 36939 ft | 385 kts | 268° |
| 2026-05-07 15:49 | 41.03145 | 5.07460 | 36939 ft | 386 kts | 268° |
| 2026-05-07 15:49 | 41.03502 | 5.00351 | 36939 ft | 386 kts | 268° |
| 2026-05-07 15:50 | 41.03852 | 4.93272 | 36938 ft | 386 kts | 268° |
| 2026-05-07 15:50 | 41.04201 | 4.86149 | 36939 ft | 387 kts | 268° |
| 2026-05-07 15:51 | 41.04544 | 4.79057 | 36939 ft | 387 kts | 268° |
| 2026-05-07 15:51 | 41.05124 | 4.71946 | 36939 ft | 390 kts | 271° |
| 2026-05-07 15:52 | 41.05901 | 4.64839 | 36939 ft | 392 kts | 272° |
| 2026-05-07 15:52 | 41.06635 | 4.58270 | 36925 ft | 393 kts | 272° |
| 2026-05-07 15:52 | 41.07034 | 4.54667 | 36698 ft | 392 kts | 272° |
| 2026-05-07 15:53 | 41.07422 | 4.51147 | 36443 ft | 388 kts | 272° |
| 2026-05-07 15:53 | 41.07807 | 4.47616 | 36193 ft | 386 kts | 272° |
| 2026-05-07 15:53 | 41.08189 | 4.44093 | 35946 ft | 386 kts | 271° |
| 2026-05-07 15:53 | 41.08567 | 4.40588 | 35675 ft | 376 kts | 271° |
| 2026-05-07 15:54 | 41.08931 | 4.37214 | 35253 ft | 378 kts | 271° |
| 2026-05-07 15:54 | 41.09294 | 4.33765 | 34579 ft | 386 kts | 270° |
| 2026-05-07 15:54 | 41.09652 | 4.30374 | 33893 ft | 382 kts | 270° |
| 2026-05-07 15:54 | 41.10020 | 4.26895 | 33223 ft | 381 kts | 270° |
| 2026-05-07 15:55 | 41.10385 | 4.23390 | 32532 ft | 388 kts | 270° |
| 2026-05-07 15:55 | 41.10756 | 4.19840 | 31811 ft | 385 kts | 271° |
| 2026-05-07 15:55 | 41.11120 | 4.16400 | 31318 ft | 374 kts | 271° |
| 2026-05-07 15:55 | 41.11475 | 4.13002 | 30837 ft | 378 kts | 271° |
| 2026-05-07 15:56 | 41.11832 | 4.09535 | 30287 ft | 380 kts | 271° |
| 2026-05-07 15:56 | 41.12191 | 4.06113 | 29748 ft | 370 kts | 271° |
| 2026-05-07 15:56 | 41.12540 | 4.02770 | 29234 ft | 365 kts | 271° |
| 2026-05-07 15:56 | 41.12885 | 3.99391 | 28727 ft | 373 kts | 271° |
| 2026-05-07 15:57 | 41.13234 | 3.95998 | 28177 ft | 366 kts | 272° |
| 2026-05-07 15:57 | 41.13571 | 3.92733 | 27675 ft | 360 kts | 272° |
| 2026-05-07 15:57 | 41.13908 | 3.89409 | 27171 ft | 369 kts | 272° |
| 2026-05-07 15:57 | 41.14252 | 3.86028 | 26615 ft | 362 kts | 273° |
| 2026-05-07 15:58 | 41.14582 | 3.82800 | 26111 ft | 355 kts | 273° |
| 2026-05-07 15:58 | 41.14918 | 3.79477 | 25602 ft | 364 kts | 273° |
| 2026-05-07 15:58 | 41.15251 | 3.76171 | 25070 ft | 358 kts | 274° |
| 2026-05-07 15:58 | 41.15608 | 3.72933 | 24615 ft | 361 kts | 279° |
| 2026-05-07 15:59 | 41.16591 | 3.69818 | 24331 ft | 371 kts | 300° |
| 2026-05-07 15:59 | 41.18184 | 3.67105 | 24102 ft | 373 kts | 300° |
| 2026-05-07 15:59 | 41.19253 | 3.64091 | 23837 ft | 363 kts | 280° |
| 2026-05-07 15:59 | 41.19449 | 3.60806 | 23588 ft | 355 kts | 261° |
| 2026-05-07 16:00 | 41.18919 | 3.57622 | 23355 ft | 352 kts | 252° |
| 2026-05-07 16:00 | 41.18248 | 3.54493 | 23104 ft | 353 kts | 254° |
| 2026-05-07 16:00 | 41.17688 | 3.51319 | 22850 ft | 352 kts | 257° |
| 2026-05-07 16:00 | 41.17253 | 3.48138 | 22599 ft | 351 kts | 259° |
| 2026-05-07 16:01 | 41.16897 | 3.44911 | 22347 ft | 351 kts | 261° |
| 2026-05-07 16:01 | 41.16597 | 3.41734 | 22098 ft | 350 kts | 261° |
| 2026-05-07 16:01 | 41.16323 | 3.38532 | 21847 ft | 350 kts | 262° |
| 2026-05-07 16:01 | 41.16061 | 3.35299 | 21595 ft | 349 kts | 262° |
| 2026-05-07 16:02 | 41.15813 | 3.32128 | 21346 ft | 348 kts | 262° |
| 2026-05-07 16:02 | 41.15568 | 3.28951 | 21096 ft | 348 kts | 262° |
| 2026-05-07 16:02 | 41.15324 | 3.25734 | 20843 ft | 347 kts | 262° |
| 2026-05-07 16:02 | 41.15084 | 3.22555 | 20592 ft | 347 kts | 262° |
| 2026-05-07 16:03 | 41.14848 | 3.19409 | 20344 ft | 346 kts | 262° |
| 2026-05-07 16:03 | 41.14610 | 3.16226 | 20092 ft | 345 kts | 262° |
| 2026-05-07 16:03 | 41.14373 | 3.13068 | 19842 ft | 345 kts | 262° |
| 2026-05-07 16:03 | 41.14139 | 3.09949 | 19594 ft | 344 kts | 262° |
| 2026-05-07 16:04 | 41.13901 | 3.06787 | 19343 ft | 344 kts | 262° |
| 2026-05-07 16:04 | 41.13662 | 3.03614 | 19090 ft | 343 kts | 262° |
| 2026-05-07 16:04 | 41.13426 | 3.00505 | 18843 ft | 343 kts | 262° |
| 2026-05-07 16:04 | 41.13187 | 2.97354 | 18591 ft | 342 kts | 262° |
| 2026-05-07 16:05 | 41.12949 | 2.94245 | 18343 ft | 342 kts | 262° |
| 2026-05-07 16:05 | 41.12710 | 2.91117 | 18092 ft | 341 kts | 262° |
| 2026-05-07 16:05 | 41.12468 | 2.87960 | 17840 ft | 340 kts | 262° |
| 2026-05-07 16:05 | 41.12229 | 2.84862 | 17590 ft | 339 kts | 262° |
| 2026-05-07 16:06 | 41.11989 | 2.81761 | 17341 ft | 338 kts | 262° |
| 2026-05-07 16:06 | 41.11747 | 2.78644 | 17089 ft | 337 kts | 262° |
| 2026-05-07 16:06 | 41.11508 | 2.75570 | 16838 ft | 336 kts | 262° |
| 2026-05-07 16:06 | 41.11268 | 2.72511 | 16589 ft | 335 kts | 262° |
| 2026-05-07 16:07 | 41.11028 | 2.69447 | 16339 ft | 334 kts | 262° |
| 2026-05-07 16:07 | 41.10786 | 2.66370 | 16087 ft | 333 kts | 262° |
| 2026-05-07 16:07 | 41.10547 | 2.63338 | 15838 ft | 331 kts | 262° |
| 2026-05-07 16:07 | 41.10307 | 2.60315 | 15589 ft | 331 kts | 262° |
| 2026-05-07 16:08 | 41.10069 | 2.57318 | 15341 ft | 330 kts | 262° |
| 2026-05-07 16:08 | 41.09827 | 2.54290 | 15090 ft | 329 kts | 262° |
| 2026-05-07 16:08 | 41.09586 | 2.51268 | 14840 ft | 328 kts | 263° |
| 2026-05-07 16:08 | 41.09347 | 2.48309 | 14593 ft | 327 kts | 263° |
| 2026-05-07 16:09 | 41.09107 | 2.45326 | 14343 ft | 326 kts | 263° |
| 2026-05-07 16:09 | 41.08864 | 2.42313 | 14091 ft | 325 kts | 263° |
| 2026-05-07 16:09 | 41.08625 | 2.39370 | 13843 ft | 324 kts | 263° |
| 2026-05-07 16:09 | 41.08383 | 2.36391 | 13591 ft | 323 kts | 263° |
| 2026-05-07 16:10 | 41.08149 | 2.33528 | 13349 ft | 322 kts | 262° |
| 2026-05-07 16:10 | 41.07908 | 2.30588 | 13099 ft | 321 kts | 263° |
| 2026-05-07 16:10 | 41.07669 | 2.27671 | 12830 ft | 311 kts | 263° |
| 2026-05-07 16:10 | 41.07436 | 2.24849 | 12553 ft | 314 kts | 263° |
| 2026-05-07 16:11 | 41.07195 | 2.21934 | 12135 ft | 316 kts | 263° |
| 2026-05-07 16:11 | 41.07017 | 2.19050 | 11628 ft | 309 kts | 267° |
| 2026-05-07 16:11 | 41.06955 | 2.16230 | 11180 ft | 309 kts | 268° |
| 2026-05-07 16:11 | 41.07044 | 2.13398 | 10800 ft | 311 kts | 280° |
| 2026-05-07 16:12 | 41.07605 | 2.10621 | 10558 ft | 311 kts | 288° |
| 2026-05-07 16:12 | 41.08302 | 2.07928 | 10312 ft | 311 kts | 288° |
| 2026-05-07 16:12 | 41.08995 | 2.05220 | 10060 ft | 309 kts | 288° |
| 2026-05-07 16:12 | 41.09654 | 2.02532 | 9806 ft | 303 kts | 287° |
| 2026-05-07 16:13 | 41.10274 | 1.99933 | 9537 ft | 289 kts | 287° |
| 2026-05-07 16:13 | 41.10857 | 1.97452 | 9284 ft | 277 kts | 287° |
| 2026-05-07 16:13 | 41.11417 | 1.95046 | 9036 ft | 273 kts | 287° |
| 2026-05-07 16:13 | 41.11971 | 1.92658 | 8790 ft | 273 kts | 286° |
| 2026-05-07 16:14 | 41.12532 | 1.90229 | 8538 ft | 273 kts | 286° |
| 2026-05-07 16:14 | 41.13071 | 1.87891 | 8296 ft | 272 kts | 286° |
| 2026-05-07 16:14 | 41.13524 | 1.85491 | 8047 ft | 270 kts | 276° |
| 2026-05-07 16:14 | 41.13488 | 1.83014 | 7965 ft | 265 kts | 257° |
| 2026-05-07 16:15 | 41.12933 | 1.80685 | 7977 ft | 268 kts | 247° |
| 2026-05-07 16:15 | 41.12160 | 1.78420 | 7964 ft | 268 kts | 244° |
| 2026-05-07 16:15 | 41.11357 | 1.76202 | 7964 ft | 268 kts | 244° |
| 2026-05-07 16:15 | 41.10559 | 1.73966 | 7748 ft | 265 kts | 244° |
| 2026-05-07 16:16 | 41.09773 | 1.71752 | 7158 ft | 266 kts | 244° |
| 2026-05-07 16:16 | 41.09018 | 1.69553 | 6702 ft | 263 kts | 249° |
| 2026-05-07 16:16 | 41.08752 | 1.67189 | 6117 ft | 265 kts | 275° |
| 2026-05-07 16:16 | 41.09311 | 1.64915 | 5592 ft | 265 kts | 302° |
| 2026-05-07 16:17 | 41.10566 | 1.63235 | 5167 ft | 262 kts | 330° |
| 2026-05-07 16:17 | 41.12277 | 1.62500 | 4846 ft | 263 kts | 358° |
| 2026-05-07 16:17 | 41.14064 | 1.62779 | 4544 ft | 262 kts | 16° |
| 2026-05-07 16:17 | 41.15779 | 1.63498 | 4223 ft | 261 kts | 20° |
| 2026-05-07 16:18 | 41.17366 | 1.64224 | 3992 ft | 256 kts | 22° |
| 2026-05-07 16:18 | 41.18824 | 1.65547 | 3993 ft | 256 kts | 50° |
| 2026-05-07 16:18 | 41.19660 | 1.67601 | 3994 ft | 256 kts | 78° |
| 2026-05-07 16:18 | 41.19692 | 1.69914 | 3991 ft | 253 kts | 103° |
| 2026-05-07 16:19 | 41.19226 | 1.72168 | 3997 ft | 253 kts | 109° |
| 2026-05-07 16:19 | 41.18745 | 1.74416 | 3983 ft | 253 kts | 96° |
| 2026-05-07 16:19 | 41.18940 | 1.76705 | 3992 ft | 255 kts | 73° |
| 2026-05-07 16:19 | 41.19641 | 1.78886 | 4003 ft | 256 kts | 65° |
| 2026-05-07 16:20 | 41.20416 | 1.81005 | 3988 ft | 255 kts | 65° |
| 2026-05-07 16:20 | 41.21153 | 1.83050 | 3951 ft | 237 kts | 66° |
| 2026-05-07 16:20 | 41.21835 | 1.84978 | 3685 ft | 227 kts | 68° |
| 2026-05-07 16:20 | 41.22463 | 1.86799 | 3438 ft | 212 kts | 67° |
| 2026-05-07 16:21 | 41.23063 | 1.88516 | 3073 ft | 205 kts | 67° |
| 2026-05-07 16:21 | 41.23648 | 1.90189 | 2807 ft | 194 kts | 68° |
| 2026-05-07 16:21 | 41.24172 | 1.91723 | 2567 ft | 191 kts | 68° |
| 2026-05-07 16:21 | 41.24708 | 1.93299 | 2306 ft | 180 kts | 69° |
| 2026-05-07 16:22 | 41.25205 | 1.94751 | 2070 ft | 174 kts | 66° |
| 2026-05-07 16:22 | 41.25678 | 1.96137 | 1856 ft | 161 kts | 68° |
| 2026-05-07 16:22 | 41.26124 | 1.97417 | 1672 ft | 152 kts | 67° |
| 2026-05-07 16:22 | 41.26553 | 1.98651 | 1423 ft | 145 kts | 67° |
| 2026-05-07 16:23 | 41.26962 | 1.99822 | 1240 ft | 143 kts | 66° |
| 2026-05-07 16:23 | 41.27380 | 2.00989 | 1064 ft | 144 kts | 65° |
| 2026-05-07 16:23 | 41.27788 | 2.02163 | 857 ft | 145 kts | 68° |
| 2026-05-07 16:23 | 41.28171 | 2.03316 | 671 ft | 143 kts | 68° |
| 2026-05-07 16:24 | 41.28566 | 2.04501 | 476 ft | 143 kts | 68° |
| 2026-05-07 16:24 | 41.28961 | 2.05642 | 320 ft | 142 kts | 66° |
| 2026-05-07 16:24 | 41.29377 | 2.06850 | 135 ft | 143 kts | 68° |
| 2026-05-07 16:24 | 41.29770 | 2.08026 | 24 ft | 123 kts | 65° |
| 2026-05-07 16:25 | 41.30006 | 2.08707 | 23 ft | 47 kts | 66° |
| 2026-05-07 16:25 | 41.30121 | 2.09047 | 23 ft | 32 kts | 58° |
| 2026-05-07 16:25 | 41.30268 | 2.09153 | 23 ft | 20 kts | 15° |
| 2026-05-07 16:25 | 41.30375 | 2.09175 | 23 ft | 11 kts | 316° |
| 2026-05-07 16:26 | 41.30376 | 2.09097 | 23 ft | 8 kts | 248° |
| 2026-05-07 16:26 | 41.30348 | 2.09011 | 23 ft | 11 kts | 247° |
| 2026-05-07 16:26 | 41.30314 | 2.08903 | 23 ft | 13 kts | 247° |
| 2026-05-07 16:26 | 41.30287 | 2.08819 | 23 ft | 15 kts | 245° |
| 2026-05-07 16:27 | 41.30213 | 2.08612 | 23 ft | 20 kts | 244° |
| 2026-05-07 16:27 | 41.30228 | 2.08477 | 23 ft | 14 kts | 329° |
| 2026-05-07 16:27 | 41.30280 | 2.08408 | 23 ft | 8 kts | 267° |
| 2026-05-07 16:27 | 41.30265 | 2.08348 | 23 ft | 7 kts | 248° |
| 2026-05-07 16:28 | 41.30246 | 2.08287 | 23 ft | 7 kts | 246° |
| 2026-05-07 16:28 | 41.30225 | 2.08224 | 23 ft | 7 kts | 251° |
| 2026-05-07 16:28 | 41.30240 | 2.08164 | 23 ft | 7 kts | 315° |
| 2026-05-07 16:28 | 41.30286 | 2.08129 | 23 ft | 6 kts | 334° |
| 2026-05-07 16:29 | 41.30309 | 2.08102 | 23 ft | 4 kts | 307° |
| 2026-05-07 16:29 | 41.30318 | 2.08068 | 23 ft | 2 kts | 282° |
| 2026-05-07 16:29 | 41.30320 | 2.08051 | 23 ft | 0 kts | 277° |